KAGS

Augusta Regional at Bush Field Airport

Augusta, Georgia, USA
METAR KAGS 250453Z AUTO 17004KT 10SM SCT007 BKN050 22/21 A3010 RMK AO2 SLP190 T02170211 403110200
Observed Flight Rules
May-25 @ 04:53 UTC (27 minutes ago) Visual Flight Rules
Wind Visibility Clouds
170° at 4 knots 10 miles
  • Scattered at 700' AGL
  • Broken at 5,000' AGL
Temperatures Readings
Current 22°C / 72°F
Dewpoint 21°C / 70°F
Humidity 94%
Altimeter 30.1" Hg
Pressure 1019 hPa
Elevation 44
METAR KAGS 250453Z AUTO 17004KT 10SM SCT007 BKN050 22/21 A3010 RMK AO2 SLP190 T02170211 403110200
Observed Flight Rules
May-25 @ 04:53 UTC
(27 minutes ago)
VFR
Wind Visibility
170° at 4 knots 10 miles
Clouds
  • Scattered at 700' AGL
  • Broken at 5,000' AGL
Temperature Dewpoint
22°C / 72°F 21°C / 70°F
Humidity Altimeter Pressure
94% 30.1" Hg 1019 hPa